SLRY  Reyes  Airport

Reyes, Bolivia

Add Bookmark
ICAO SLRY
IATA REY
Type Airport
Status Operational
Latitude
14° 18' 15" S
-14.304400
Longitude
67° 21' 12" W
-67.353401
Local (DST -4) UTC (GMT -4)
Feb 13, 2016 11:39 Feb 14, 2016 03:39
Sunrise-Sunset Local UTC
Begin Civil Twilight 06:03 10:03
Sunrise 06:25 10:25
Sunset 07:01 23:01
End Civil Twilight 07:23 23:23
VFR
VFR
MVFR
MVFR
IFR
IFR
LIFR
LIFR
Unknown
Unavailable

Current Weather

METAR Observed VFR
SLRY 132200Z 34010KT 9999 FEW020 32/24 Q1007 Sat, Feb 13, 2016 @ 22:00 UTC
(5 Hours, 39 Minutes ago)
Visual Flight Rules
Wind Visibility Clouds Conditions
340° at 10 knots (19 kph) 10 km or more
  • Few at 2,000 ft AGL
  • No significant weather
Temperatures Readings Precipitation
Current Temp
32°C
90°F
Dewpoint
24°C
75°F
Heat Index
38°C
101°
Humidity 63%
Altimeter 29.73" Hg
Sea Level Pressure 1,007 mb
Field Elevation
280 m
919 ft
None Recorded

Additional weather within a 92.6km radius of SLRY

Map ICAO Location
SLRQ 20.7km SW (229°)
VFR
VFR
MVFR
MVFR
IFR
IFR
LIFR
LIFR
Unknown
Unavailable
-
-

CheckWX.com is intended as a tool to help pilots better visualize weather data. It is not intended as a substitute for an official weather briefing obtained from a Flight Service Station. CheckWX.com does not meet the FAA requirements for an official pre-flight weather briefing. Therefore, it's important that pilots still call and obtain an official FSS pre-flight weather briefing.

© 2007-2016 CheckWX.com
03:39:23 UTC